sensor_id;sensor_type;location;lat;lon;timestamp;pressure;altitude;pressure_sealevel;temperature;humidity
45793;BME280;31495;42.740;22.908;2023-03-03T00:00:47;93079.19;;;3.78;80.23
45793;BME280;31495;42.740;22.908;2023-03-03T00:01:46;93098.94;;;3.93;80.67
45793;BME280;31495;42.740;22.908;2023-03-03T00:02:46;93065.78;;;3.76;80.25
45793;BME280;31495;42.740;22.908;2023-03-03T00:03:46;93088.53;;;3.94;80.08
45793;BME280;31495;42.740;22.908;2023-03-03T00:04:45;93090.47;;;3.92;80.05
45793;BME280;31495;42.740;22.908;2023-03-03T00:05:45;93090.34;;;3.85;80.45
45793;BME280;31495;42.740;22.908;2023-03-03T00:06:45;93075.72;;;3.71;80.72
45793;BME280;31495;42.740;22.908;2023-03-03T00:07:44;93098.81;;;3.86;80.34
45793;BME280;31495;42.740;22.908;2023-03-03T00:08:44;93098.66;;;3.88;80.40
45793;BME280;31495;42.740;22.908;2023-03-03T00:09:43;93074.44;;;3.67;80.59
45793;BME280;31495;42.740;22.908;2023-03-03T00:10:43;93072.53;;;3.69;80.34
45793;BME280;31495;42.740;22.908;2023-03-03T00:11:44;93093.75;;;3.78;80.53
45793;BME280;31495;42.740;22.908;2023-03-03T00:12:47;93091.44;;;3.60;81.15
45793;BME280;31495;42.740;22.908;2023-03-03T00:13:50;93068.13;;;3.55;80.94
45793;BME280;31495;42.740;22.908;2023-03-03T00:14:50;93091.56;;;3.66;81.06
45793;BME280;31495;42.740;22.908;2023-03-03T00:15:50;93082.88;;;3.53;81.44
45793;BME280;31495;42.740;22.908;2023-03-03T00:16:50;93040.31;;;3.28;81.73
45793;BME280;31495;42.740;22.908;2023-03-03T00:17:51;93097.69;;;3.57;81.92
45793;BME280;31495;42.740;22.908;2023-03-03T00:18:51;93090.53;;;3.53;82.02
45793;BME280;31495;42.740;22.908;2023-03-03T00:19:51;93099.91;;;3.60;82.07
45793;BME280;31495;42.740;22.908;2023-03-03T00:20:53;93079.66;;;3.50;81.94
45793;BME280;31495;42.740;22.908;2023-03-03T00:21:55;93102.94;;;3.64;81.66
45793;BME280;31495;42.740;22.908;2023-03-03T00:22:57;93073.59;;;3.52;81.57
45793;BME280;31495;42.740;22.908;2023-03-03T00:24:18;93099.03;;;3.76;81.35
45793;BME280;31495;42.740;22.908;2023-03-03T00:25:28;93096.81;;;3.73;81.38
45793;BME280;31495;42.740;22.908;2023-03-03T00:26:34;93062.41;;;3.53;81.31
45793;BME280;31495;42.740;22.908;2023-03-03T00:27:35;93094.22;;;3.81;81.24
45793;BME280;31495;42.740;22.908;2023-03-03T00:28:51;93094.88;;;3.75;81.21
45793;BME280;31495;42.740;22.908;2023-03-03T00:29:58;93057.94;;;3.46;81.28
45793;BME280;31495;42.740;22.908;2023-03-03T00:31:00;93081.28;;;3.75;81.12
45793;BME280;31495;42.740;22.908;2023-03-03T00:33:32;93088.97;;;3.75;81.05
45793;BME280;31495;42.740;22.908;2023-03-03T00:34:32;93063.75;;;3.63;81.13
45793;BME280;31495;42.740;22.908;2023-03-03T00:35:32;93079.41;;;3.68;81.37
45793;BME280;31495;42.740;22.908;2023-03-03T00:36:38;93081.13;;;3.76;80.72
45793;BME280;31495;42.740;22.908;2023-03-03T00:37:40;93030.69;;;3.30;81.33
45793;BME280;31495;42.740;22.908;2023-03-03T00:38:39;93051.06;;;3.47;81.53
45793;BME280;31495;42.740;22.908;2023-03-03T00:39:39;93083.06;;;3.74;81.34
45793;BME280;31495;42.740;22.908;2023-03-03T00:40:39;93079.69;;;3.74;81.29
45793;BME280;31495;42.740;22.908;2023-03-03T00:41:39;93081.34;;;3.66;81.35
45793;BME280;31495;42.740;22.908;2023-03-03T00:42:39;93031.31;;;3.33;81.51
45793;BME280;31495;42.740;22.908;2023-03-03T00:43:39;93082.78;;;3.69;81.30
45793;BME280;31495;42.740;22.908;2023-03-03T00:44:46;93082.91;;;3.76;81.30
45793;BME280;31495;42.740;22.908;2023-03-03T00:45:54;93081.88;;;3.85;80.77
45793;BME280;31495;42.740;22.908;2023-03-03T00:46:55;93033.69;;;3.65;80.60
45793;BME280;31495;42.740;22.908;2023-03-03T00:47:56;93078.69;;;3.83;80.29
45793;BME280;31495;42.740;22.908;2023-03-03T00:48:56;93045.56;;;3.58;80.71
45793;BME280;31495;42.740;22.908;2023-03-03T00:52:22;93016.97;;;3.55;80.45
45793;BME280;31495;42.740;22.908;2023-03-03T00:53:28;93052.63;;;3.79;80.02
45793;BME280;31495;42.740;22.908;2023-03-03T00:54:28;93070.50;;;3.88;80.24
45793;BME280;31495;42.740;22.908;2023-03-03T00:55:28;93066.28;;;3.95;80.06
45793;BME280;31495;42.740;22.908;2023-03-03T00:56:28;93030.16;;;3.66;79.79
45793;BME280;31495;42.740;22.908;2023-03-03T00:57:28;93028.41;;;3.67;79.86
45793;BME280;31495;42.740;22.908;2023-03-03T00:58:27;93045.91;;;3.78;79.96
45793;BME280;31495;42.740;22.908;2023-03-03T00:59:28;93061.84;;;3.89;80.20
45793;BME280;31495;42.740;22.908;2023-03-03T01:00:27;93041.78;;;3.77;80.20
45793;BME280;31495;42.740;22.908;2023-03-03T01:01:26;93012.72;;;3.70;79.54
45793;BME280;31495;42.740;22.908;2023-03-03T01:02:26;93052.97;;;3.99;79.35
45793;BME280;31495;42.740;22.908;2023-03-03T01:03:26;93060.66;;;3.99;79.56
45793;BME280;31495;42.740;22.908;2023-03-03T01:04:25;93051.69;;;4.03;79.38
45793;BME280;31495;42.740;22.908;2023-03-03T01:05:25;93049.00;;;3.97;79.43
45793;BME280;31495;42.740;22.908;2023-03-03T01:06:24;93006.97;;;3.68;79.52
45793;BME280;31495;42.740;22.908;2023-03-03T01:07:24;93047.84;;;3.99;79.79
45793;BME280;31495;42.740;22.908;2023-03-03T01:08:24;93049.56;;;4.07;79.35
45793;BME280;31495;42.740;22.908;2023-03-03T01:09:23;93048.56;;;4.08;79.30
45793;BME280;31495;42.740;22.908;2023-03-03T01:10:24;93042.50;;;4.09;79.25
45793;BME280;31495;42.740;22.908;2023-03-03T01:11:25;93052.06;;;4.15;79.25
45793;BME280;31495;42.740;22.908;2023-03-03T01:12:26;93045.94;;;4.16;78.69
45793;BME280;31495;42.740;22.908;2023-03-03T01:13:29;93017.91;;;4.00;78.49
45793;BME280;31495;42.740;22.908;2023-03-03T01:14:29;92990.16;;;3.89;78.00
45793;BME280;31495;42.740;22.908;2023-03-03T01:15:30;93046.88;;;4.23;78.38
45793;BME280;31495;42.740;22.908;2023-03-03T01:16:30;93043.75;;;4.13;78.47
45793;BME280;31495;42.740;22.908;2023-03-03T01:17:29;93038.63;;;4.13;78.83
45793;BME280;31495;42.740;22.908;2023-03-03T01:18:29;93030.03;;;4.06;78.75
45793;BME280;31495;42.740;22.908;2023-03-03T01:19:29;93040.66;;;4.18;78.61
45793;BME280;31495;42.740;22.908;2023-03-03T01:20:29;93042.25;;;4.19;78.51
45793;BME280;31495;42.740;22.908;2023-03-03T01:21:28;93032.25;;;4.09;78.26
45793;BME280;31495;42.740;22.908;2023-03-03T01:22:27;93040.91;;;4.08;78.51
45793;BME280;31495;42.740;22.908;2023-03-03T01:23:27;93031.97;;;4.04;78.82
45793;BME280;31495;42.740;22.908;2023-03-03T01:24:26;93036.22;;;3.97;79.13
45793;BME280;31495;42.740;22.908;2023-03-03T01:25:26;93044.78;;;4.04;78.94
45793;BME280;31495;42.740;22.908;2023-03-03T01:26:26;93044.72;;;4.12;78.74
45793;BME280;31495;42.740;22.908;2023-03-03T01:27:25;93045.22;;;4.08;78.81
45793;BME280;31495;42.740;22.908;2023-03-03T01:28:27;93032.84;;;3.96;79.00
45793;BME280;31495;42.740;22.908;2023-03-03T01:29:26;93034.44;;;3.97;79.05
45793;BME280;31495;42.740;22.908;2023-03-03T01:30:26;93001.34;;;3.73;78.92
45793;BME280;31495;42.740;22.908;2023-03-03T01:31:25;93036.56;;;3.94;79.28
45793;BME280;31495;42.740;22.908;2023-03-03T01:32:26;93009.47;;;3.76;79.54
45793;BME280;31495;42.740;22.908;2023-03-03T01:33:26;93041.13;;;3.98;79.35
45793;BME280;31495;42.740;22.908;2023-03-03T01:34:25;93024.03;;;3.99;79.34
45793;BME280;31495;42.740;22.908;2023-03-03T01:35:25;93026.81;;;3.89;79.50
45793;BME280;31495;42.740;22.908;2023-03-03T01:36:27;93032.03;;;3.96;79.30
45793;BME280;31495;42.740;22.908;2023-03-03T01:37:27;92990.50;;;3.71;79.37
45793;BME280;31495;42.740;22.908;2023-03-03T01:38:26;93033.59;;;4.05;79.20
45793;BME280;31495;42.740;22.908;2023-03-03T01:39:26;93013.56;;;3.85;79.21
45793;BME280;31495;42.740;22.908;2023-03-03T01:40:28;93029.47;;;3.96;79.48
45793;BME280;31495;42.740;22.908;2023-03-03T01:41:31;92994.63;;;3.72;79.34
45793;BME280;31495;42.740;22.908;2023-03-03T01:42:31;93022.50;;;3.90;79.59
45793;BME280;31495;42.740;22.908;2023-03-03T01:43:32;93030.94;;;3.90;79.62
45793;BME280;31495;42.740;22.908;2023-03-03T01:44:32;93004.25;;;3.70;80.29
45793;BME280;31495;42.740;22.908;2023-03-03T01:48:16;93016.25;;;3.69;80.32
45793;BME280;31495;42.740;22.908;2023-03-03T01:49:28;92999.00;;;3.63;80.32
45793;BME280;31495;42.740;22.908;2023-03-03T01:50:51;92976.56;;;3.50;80.61
45793;BME280;31495;42.740;22.908;2023-03-03T01:51:57;93027.59;;;3.90;80.01
45793;BME280;31495;42.740;22.908;2023-03-03T01:52:59;92987.19;;;3.62;80.15
45793;BME280;31495;42.740;22.908;2023-03-03T01:54:02;93003.63;;;3.67;80.15
45793;BME280;31495;42.740;22.908;2023-03-03T01:55:07;92989.78;;;3.54;80.17
45793;BME280;31495;42.740;22.908;2023-03-03T01:56:10;93030.84;;;3.83;80.29
45793;BME280;31495;42.740;22.908;2023-03-03T01:57:15;93023.66;;;3.87;80.50
45793;BME280;31495;42.740;22.908;2023-03-03T01:58:20;93000.53;;;3.72;80.33
45793;BME280;31495;42.740;22.908;2023-03-03T01:59:26;93022.72;;;3.80;80.43
45793;BME280;31495;42.740;22.908;2023-03-03T02:00:28;92990.41;;;3.56;81.02
45793;BME280;31495;42.740;22.908;2023-03-03T02:01:29;93021.94;;;3.79;80.77
45793;BME280;31495;42.740;22.908;2023-03-03T02:02:30;92960.47;;;3.41;80.66
45793;BME280;31495;42.740;22.908;2023-03-03T02:03:30;93017.16;;;3.76;80.74
45793;BME280;31495;42.740;22.908;2023-03-03T02:04:31;93023.16;;;3.83;80.89
45793;BME280;31495;42.740;22.908;2023-03-03T02:05:33;93013.53;;;3.71;80.66
45793;BME280;31495;42.740;22.908;2023-03-03T02:06:36;92981.09;;;3.40;81.13
45793;BME280;31495;42.740;22.908;2023-03-03T02:07:38;92971.03;;;3.38;81.07
45793;BME280;31495;42.740;22.908;2023-03-03T02:08:53;93005.75;;;3.56;81.22
45793;BME280;31495;42.740;22.908;2023-03-03T02:10:11;93016.41;;;3.67;81.31
45793;BME280;31495;42.740;22.908;2023-03-03T02:11:12;92962.28;;;3.33;81.49
45793;BME280;31495;42.740;22.908;2023-03-03T02:12:15;92996.78;;;3.60;81.49
45793;BME280;31495;42.740;22.908;2023-03-03T02:13:15;93003.47;;;3.69;80.96
45793;BME280;31495;42.740;22.908;2023-03-03T02:14:15;92988.00;;;3.62;81.12
45793;BME280;31495;42.740;22.908;2023-03-03T02:15:29;93005.53;;;3.65;81.65
45793;BME280;31495;42.740;22.908;2023-03-03T02:16:30;93019.38;;;3.79;81.02
45793;BME280;31495;42.740;22.908;2023-03-03T02:17:30;93018.22;;;3.82;81.04
45793;BME280;31495;42.740;22.908;2023-03-03T02:18:30;93015.50;;;3.83;81.19
45793;BME280;31495;42.740;22.908;2023-03-03T02:21:04;93022.16;;;3.70;81.54
45793;BME280;31495;42.740;22.908;2023-03-03T02:22:06;93016.38;;;3.76;81.79
45793;BME280;31495;42.740;22.908;2023-03-03T02:23:21;93009.81;;;3.73;81.15
45793;BME280;31495;42.740;22.908;2023-03-03T02:24:44;93017.66;;;3.72;81.79
45793;BME280;31495;42.740;22.908;2023-03-03T02:26:54;93018.38;;;3.80;81.80
45793;BME280;31495;42.740;22.908;2023-03-03T02:27:54;93006.06;;;3.84;81.69
45793;BME280;31495;42.740;22.908;2023-03-03T02:28:55;92989.16;;;3.75;81.69
45793;BME280;31495;42.740;22.908;2023-03-03T02:29:54;93008.97;;;3.81;81.63
45793;BME280;31495;42.740;22.908;2023-03-03T02:30:56;92981.09;;;3.63;81.73
45793;BME280;31495;42.740;22.908;2023-03-03T02:31:55;93016.38;;;3.76;81.89
45793;BME280;31495;42.740;22.908;2023-03-03T02:32:55;93001.00;;;3.76;81.85
45793;BME280;31495;42.740;22.908;2023-03-03T02:33:55;93006.63;;;3.71;82.08
45793;BME280;31495;42.740;22.908;2023-03-03T02:34:54;92968.72;;;3.52;82.02
45793;BME280;31495;42.740;22.908;2023-03-03T02:35:54;93007.03;;;3.83;81.65
45793;BME280;31495;42.740;22.908;2023-03-03T02:36:54;93004.28;;;3.84;81.66
45793;BME280;31495;42.740;22.908;2023-03-03T02:37:56;92959.44;;;3.50;81.80
45793;BME280;31495;42.740;22.908;2023-03-03T02:39:15;93005.31;;;3.75;82.23
45793;BME280;31495;42.740;22.908;2023-03-03T02:40:18;92997.28;;;3.78;82.10
45793;BME280;31495;42.740;22.908;2023-03-03T02:42:26;93005.78;;;3.79;81.86
45793;BME280;31495;42.740;22.908;2023-03-03T02:43:32;92981.09;;;3.63;82.39
45793;BME280;31495;42.740;22.908;2023-03-03T02:44:35;93006.84;;;3.84;82.13
45793;BME280;31495;42.740;22.908;2023-03-03T02:45:41;93001.28;;;3.81;82.37
45793;BME280;31495;42.740;22.908;2023-03-03T02:46:43;93006.53;;;3.64;82.68
45793;BME280;31495;42.740;22.908;2023-03-03T02:47:49;93010.03;;;3.63;82.96
45793;BME280;31495;42.740;22.908;2023-03-03T02:48:49;93010.38;;;3.60;83.11
45793;BME280;31495;42.740;22.908;2023-03-03T02:49:49;92975.72;;;3.35;83.36
45793;BME280;31495;42.740;22.908;2023-03-03T02:50:48;92977.84;;;3.46;83.19
45793;BME280;31495;42.740;22.908;2023-03-03T02:51:48;93006.97;;;3.68;83.30
45793;BME280;31495;42.740;22.908;2023-03-03T02:52:48;92972.56;;;3.47;82.99
45793;BME280;31495;42.740;22.908;2023-03-03T02:53:48;92960.66;;;3.40;83.08
45793;BME280;31495;42.740;22.908;2023-03-03T02:54:48;93000.91;;;3.69;83.24
45793;BME280;31495;42.740;22.908;2023-03-03T02:55:47;92974.09;;;3.57;82.94
45793;BME280;31495;42.740;22.908;2023-03-03T02:56:47;92973.31;;;3.56;82.66
45793;BME280;31495;42.740;22.908;2023-03-03T02:57:46;92995.47;;;3.64;82.93
45793;BME280;31495;42.740;22.908;2023-03-03T02:58:46;92994.47;;;3.73;82.81
45793;BME280;31495;42.740;22.908;2023-03-03T02:59:45;92947.25;;;3.29;82.90
45793;BME280;31495;42.740;22.908;2023-03-03T03:00:44;92992.13;;;3.63;83.34
45793;BME280;31495;42.740;22.908;2023-03-03T03:01:46;92984.50;;;3.55;83.00
45793;BME280;31495;42.740;22.908;2023-03-03T03:02:46;92994.06;;;3.61;83.32
45793;BME280;31495;42.740;22.908;2023-03-03T03:03:45;93001.84;;;3.68;82.98
45793;BME280;31495;42.740;22.908;2023-03-03T03:04:44;92982.28;;;3.52;83.29
45793;BME280;31495;42.740;22.908;2023-03-03T03:05:44;92998.41;;;3.61;83.72
45793;BME280;31495;42.740;22.908;2023-03-03T03:06:44;92965.59;;;3.41;83.33
45793;BME280;31495;42.740;22.908;2023-03-03T03:07:43;92997.84;;;3.65;83.65
45793;BME280;31495;42.740;22.908;2023-03-03T03:08:43;92997.69;;;3.67;83.07
45793;BME280;31495;42.740;22.908;2023-03-03T03:09:42;92992.84;;;3.72;82.99
45793;BME280;31495;42.740;22.908;2023-03-03T03:10:42;92976.03;;;3.55;82.86
45793;BME280;31495;42.740;22.908;2023-03-03T03:11:42;92966.22;;;3.43;83.64
45793;BME280;31495;42.740;22.908;2023-03-03T03:12:41;92997.41;;;3.62;83.62
45793;BME280;31495;42.740;22.908;2023-03-03T03:13:41;92934.13;;;3.09;84.01
45793;BME280;31495;42.740;22.908;2023-03-03T03:14:40;92992.97;;;3.56;83.86
45793;BME280;31495;42.740;22.908;2023-03-03T03:15:40;92927.84;;;3.20;84.00
45793;BME280;31495;42.740;22.908;2023-03-03T03:16:40;92996.78;;;3.60;84.03
45793;BME280;31495;42.740;22.908;2023-03-03T03:17:40;92968.72;;;3.52;83.65
45793;BME280;31495;42.740;22.908;2023-03-03T03:18:40;92992.84;;;3.72;83.16
45793;BME280;31495;42.740;22.908;2023-03-03T03:19:39;92938.91;;;3.36;82.96
45793;BME280;31495;42.740;22.908;2023-03-03T03:20:40;92932.91;;;3.28;83.16
45793;BME280;31495;42.740;22.908;2023-03-03T03:21:39;92989.72;;;3.62;83.24
45793;BME280;31495;42.740;22.908;2023-03-03T03:22:39;92956.19;;;3.34;83.17
45793;BME280;31495;42.740;22.908;2023-03-03T03:23:39;92895.72;;;2.94;83.12
45793;BME280;31495;42.740;22.908;2023-03-03T03:24:38;92996.13;;;3.66;83.28
45793;BME280;31495;42.740;22.908;2023-03-03T03:25:38;92997.53;;;3.68;82.82
45793;BME280;31495;42.740;22.908;2023-03-03T03:26:43;92967.56;;;3.54;83.19
45793;BME280;31495;42.740;22.908;2023-03-03T03:27:43;92966.16;;;3.52;82.63
45793;BME280;31495;42.740;22.908;2023-03-03T03:28:42;92964.56;;;3.50;82.99
45793;BME280;31495;42.740;22.908;2023-03-03T03:29:41;92989.41;;;3.65;83.16
45793;BME280;31495;42.740;22.908;2023-03-03T03:30:41;92956.03;;;3.35;83.29
45793;BME280;31495;42.740;22.908;2023-03-03T03:31:42;92964.00;;;3.40;83.77
45793;BME280;31495;42.740;22.908;2023-03-03T03:32:42;92990.00;;;3.67;83.26
45793;BME280;31495;42.740;22.908;2023-03-03T03:33:41;92982.13;;;3.54;83.58
45793;BME280;31495;42.740;22.908;2023-03-03T03:34:41;92986.66;;;3.66;83.16
45793;BME280;31495;42.740;22.908;2023-03-03T03:35:40;92986.00;;;3.49;83.42
45793;BME280;31495;42.740;22.908;2023-03-03T03:36:43;92987.00;;;3.63;83.42
45793;BME280;31495;42.740;22.908;2023-03-03T03:37:45;92973.81;;;3.52;83.46
45793;BME280;31495;42.740;22.908;2023-03-03T03:38:44;92988.16;;;3.61;83.38
45793;BME280;31495;42.740;22.908;2023-03-03T03:39:44;92942.41;;;3.43;83.19
45793;BME280;31495;42.740;22.908;2023-03-03T03:40:44;92942.75;;;3.40;82.93
45793;BME280;31495;42.740;22.908;2023-03-03T03:41:43;92931.31;;;3.27;83.21
45793;BME280;31495;42.740;22.908;2023-03-03T03:42:42;92936.81;;;3.39;82.44
45793;BME280;31495;42.740;22.908;2023-03-03T03:43:42;92944.84;;;3.36;82.72
45793;BME280;31495;42.740;22.908;2023-03-03T03:44:41;92984.00;;;3.60;83.29
45793;BME280;31495;42.740;22.908;2023-03-03T03:45:41;92953.09;;;3.46;83.04
45793;BME280;31495;42.740;22.908;2023-03-03T03:46:41;92972.66;;;3.62;82.94
45793;BME280;31495;42.740;22.908;2023-03-03T03:47:41;92965.75;;;3.63;83.00
45793;BME280;31495;42.740;22.908;2023-03-03T03:48:40;92956.66;;;3.60;82.16
45793;BME280;31495;42.740;22.908;2023-03-03T03:49:40;92932.13;;;3.51;82.32
45793;BME280;31495;42.740;22.908;2023-03-03T03:50:39;92975.69;;;3.81;81.78
45793;BME280;31495;42.740;22.908;2023-03-03T03:51:39;92958.97;;;3.70;81.83
45793;BME280;31495;42.740;22.908;2023-03-03T03:52:40;92975.69;;;3.81;82.00
45793;BME280;31495;42.740;22.908;2023-03-03T03:53:39;92982.22;;;3.83;82.08
45793;BME280;31495;42.740;22.908;2023-03-03T03:54:38;92968.47;;;3.84;81.50
45793;BME280;31495;42.740;22.908;2023-03-03T03:55:38;92956.41;;;3.70;81.63
45793;BME280;31495;42.740;22.908;2023-03-03T03:56:37;92977.19;;;3.90;81.73
45793;BME280;31495;42.740;22.908;2023-03-03T03:57:37;92960.50;;;3.79;81.49
45793;BME280;31495;42.740;22.908;2023-03-03T03:58:36;92978.81;;;3.91;81.55
45793;BME280;31495;42.740;22.908;2023-03-03T03:59:35;92960.94;;;3.83;81.57
45793;BME280;31495;42.740;22.908;2023-03-03T04:00:35;92912.25;;;3.53;81.39
45793;BME280;31495;42.740;22.908;2023-03-03T04:01:35;92938.34;;;3.72;81.41
45793;BME280;31495;42.740;22.908;2023-03-03T04:02:35;92974.94;;;3.95;81.37
45793;BME280;31495;42.740;22.908;2023-03-03T04:03:35;92941.88;;;3.71;81.09
45793;BME280;31495;42.740;22.908;2023-03-03T04:04:34;92965.84;;;3.93;81.09
45793;BME280;31495;42.740;22.908;2023-03-03T04:05:34;92962.81;;;3.89;81.07
45793;BME280;31495;42.740;22.908;2023-03-03T04:06:33;92918.28;;;3.60;81.11
45793;BME280;31495;42.740;22.908;2023-03-03T04:07:33;92983.84;;;3.99;81.31
45793;BME280;31495;42.740;22.908;2023-03-03T04:08:32;92955.66;;;3.84;81.13
45793;BME280;31495;42.740;22.908;2023-03-03T04:09:32;92959.28;;;3.90;80.99
45793;BME280;31495;42.740;22.908;2023-03-03T04:10:33;92932.81;;;3.83;80.73
45793;BME280;31495;42.740;22.908;2023-03-03T04:11:32;92973.38;;;4.09;80.22
45793;BME280;31495;42.740;22.908;2023-03-03T04:12:32;92966.47;;;4.10;79.78
45793;BME280;31495;42.740;22.908;2023-03-03T04:13:37;92944.94;;;4.04;79.77
45793;BME280;31495;42.740;22.908;2023-03-03T04:14:36;92976.13;;;4.22;79.61
45793;BME280;31495;42.740;22.908;2023-03-03T04:15:36;92982.41;;;4.20;79.89
45793;BME280;31495;42.740;22.908;2023-03-03T04:16:35;92962.25;;;4.02;80.37
45793;BME280;31495;42.740;22.908;2023-03-03T04:17:35;92969.38;;;4.07;80.27
45793;BME280;31495;42.740;22.908;2023-03-03T04:18:35;92974.78;;;4.12;80.29
45793;BME280;31495;42.740;22.908;2023-03-03T04:19:34;92951.91;;;3.95;80.12
45793;BME280;31495;42.740;22.908;2023-03-03T04:20:34;92978.16;;;4.12;79.72
45793;BME280;31495;42.740;22.908;2023-03-03T04:21:33;92961.44;;;4.01;79.97
45793;BME280;31495;42.740;22.908;2023-03-03T04:22:33;92973.00;;;3.97;80.12
45793;BME280;31495;42.740;22.908;2023-03-03T04:23:34;92962.94;;;3.96;79.96
45793;BME280;31495;42.740;22.908;2023-03-03T04:24:33;92898.75;;;3.44;80.07
45793;BME280;31495;42.740;22.908;2023-03-03T04:25:33;92949.91;;;3.67;80.43
45793;BME280;31495;42.740;22.908;2023-03-03T04:26:33;92967.41;;;3.79;81.08
45793;BME280;31495;42.740;22.908;2023-03-03T04:27:34;92973.31;;;3.79;81.05
45793;BME280;31495;42.740;22.908;2023-03-03T04:28:34;92960.91;;;3.68;81.21
45793;BME280;31495;42.740;22.908;2023-03-03T04:29:34;92981.09;;;3.86;81.18
45793;BME280;31495;42.740;22.908;2023-03-03T04:30:34;92933.63;;;3.60;81.01
45793;BME280;31495;42.740;22.908;2023-03-03T04:31:33;92982.78;;;3.94;81.12
45793;BME280;31495;42.740;22.908;2023-03-03T04:32:33;92974.56;;;3.98;80.69
45793;BME280;31495;42.740;22.908;2023-03-03T04:33:33;92957.94;;;3.79;80.53
45793;BME280;31495;42.740;22.908;2023-03-03T04:34:33;92953.78;;;3.78;80.71
45793;BME280;31495;42.740;22.908;2023-03-03T04:35:33;92951.22;;;3.78;80.76
45793;BME280;31495;42.740;22.908;2023-03-03T04:36:32;92967.13;;;3.89;80.64
45793;BME280;31495;42.740;22.908;2023-03-03T04:37:32;92974.94;;;3.95;80.54
45793;BME280;31495;42.740;22.908;2023-03-03T04:38:31;92978.63;;;3.93;80.82
45793;BME280;31495;42.740;22.908;2023-03-03T04:39:31;92952.72;;;3.73;81.13
45793;BME280;31495;42.740;22.908;2023-03-03T04:40:30;92978.63;;;3.93;80.55
45793;BME280;31495;42.740;22.908;2023-03-03T04:41:29;92888.38;;;3.38;80.15
45793;BME280;31495;42.740;22.908;2023-03-03T04:42:29;92926.13;;;3.59;80.29
45793;BME280;31495;42.740;22.908;2023-03-03T04:43:28;92959.91;;;3.77;80.26
45793;BME280;31495;42.740;22.908;2023-03-03T04:44:28;92919.22;;;3.44;80.34
45793;BME280;31495;42.740;22.908;2023-03-03T04:45:27;92976.47;;;3.81;80.75
45793;BME280;31495;42.740;22.908;2023-03-03T04:46:26;92974.59;;;3.75;81.25
45793;BME280;31495;42.740;22.908;2023-03-03T04:47:26;92951.53;;;3.60;81.23
45793;BME280;31495;42.740;22.908;2023-03-03T04:48:25;92975.06;;;3.79;81.22
45793;BME280;31495;42.740;22.908;2023-03-03T04:49:25;92925.72;;;3.47;81.33
45793;BME280;31495;42.740;22.908;2023-03-03T04:50:25;92960.22;;;3.74;81.22
45793;BME280;31495;42.740;22.908;2023-03-03T04:51:25;92940.50;;;3.60;81.33
45793;BME280;31495;42.740;22.908;2023-03-03T04:52:24;92940.84;;;3.57;81.04
45793;BME280;31495;42.740;22.908;2023-03-03T04:53:24;92954.53;;;3.64;80.71
45793;BME280;31495;42.740;22.908;2023-03-03T04:54:23;92974.53;;;3.83;81.06
45793;BME280;31495;42.740;22.908;2023-03-03T04:55:23;92975.06;;;3.79;80.96
45793;BME280;31495;42.740;22.908;2023-03-03T04:56:22;92917.78;;;3.42;80.83
45793;BME280;31495;42.740;22.908;2023-03-03T04:57:22;92982.44;;;3.74;81.23
45793;BME280;31495;42.740;22.908;2023-03-03T04:58:21;92979.78;;;3.67;81.30
45793;BME280;31495;42.740;22.908;2023-03-03T04:59:20;92980.75;;;3.66;81.54
45793;BME280;31495;42.740;22.908;2023-03-03T05:00:20;92983.50;;;3.64;81.35
45793;BME280;31495;42.740;22.908;2023-03-03T05:01:20;92973.38;;;3.48;81.27
45793;BME280;31495;42.740;22.908;2023-03-03T05:02:19;92922.06;;;3.26;81.23
45793;BME280;31495;42.740;22.908;2023-03-03T05:03:19;92981.22;;;3.70;81.05
45793;BME280;31495;42.740;22.908;2023-03-03T05:04:18;92939.09;;;3.34;80.99
45793;BME280;31495;42.740;22.908;2023-03-03T05:05:18;92983.38;;;3.58;80.99
45793;BME280;31495;42.740;22.908;2023-03-03T05:06:17;92939.91;;;3.35;80.81
45793;BME280;31495;42.740;22.908;2023-03-03T05:07:17;92976.94;;;3.62;80.71
45793;BME280;31495;42.740;22.908;2023-03-03T05:08:18;92987.00;;;3.63;81.11
45793;BME280;31495;42.740;22.908;2023-03-03T05:09:17;92989.41;;;3.65;81.05
45793;BME280;31495;42.740;22.908;2023-03-03T05:10:17;92986.66;;;3.66;80.78
45793;BME280;31495;42.740;22.908;2023-03-03T05:11:17;92968.03;;;3.58;80.87
45793;BME280;31495;42.740;22.908;2023-03-03T05:12:16;92979.50;;;3.62;80.93
45793;BME280;31495;42.740;22.908;2023-03-03T05:13:16;92983.03;;;3.61;81.07
45793;BME280;31495;42.740;22.908;2023-03-03T05:14:15;92983.56;;;3.56;81.14
45793;BME280;31495;42.740;22.908;2023-03-03T05:15:15;92948.03;;;3.38;81.30
45793;BME280;31495;42.740;22.908;2023-03-03T05:16:14;92982.06;;;3.62;81.20
45793;BME280;31495;42.740;22.908;2023-03-03T05:17:14;92972.16;;;3.59;80.76
45793;BME280;31495;42.740;22.908;2023-03-03T05:18:13;92977.28;;;3.59;80.60
45793;BME280;31495;42.740;22.908;2023-03-03T05:19:13;92953.09;;;3.46;80.64
45793;BME280;31495;42.740;22.908;2023-03-03T05:20:12;92927.28;;;3.33;80.97
45793;BME280;31495;42.740;22.908;2023-03-03T05:21:13;92984.22;;;3.73;80.86
45793;BME280;31495;42.740;22.908;2023-03-03T05:22:12;92933.63;;;3.37;80.97
45793;BME280;31495;42.740;22.908;2023-03-03T05:23:12;92985.19;;;3.72;81.27
45793;BME280;31495;42.740;22.908;2023-03-03T05:24:12;92977.81;;;3.77;80.75
45793;BME280;31495;42.740;22.908;2023-03-03T05:25:12;92984.50;;;3.78;80.51
45793;BME280;31495;42.740;22.908;2023-03-03T05:26:11;92983.19;;;3.82;80.47
45793;BME280;31495;42.740;22.908;2023-03-03T05:27:11;92951.88;;;3.57;80.59
45793;BME280;31495;42.740;22.908;2023-03-03T05:28:11;92986.44;;;3.76;80.43
45793;BME280;31495;42.740;22.908;2023-03-03T05:29:10;92977.81;;;3.77;80.50
45793;BME280;31495;42.740;22.908;2023-03-03T05:30:10;92941.97;;;3.54;80.49
45793;BME280;31495;42.740;22.908;2023-03-03T05:31:09;92979.03;;;3.81;79.69
45793;BME280;31495;42.740;22.908;2023-03-03T05:32:10;92980.31;;;3.85;79.71
45793;BME280;31495;42.740;22.908;2023-03-03T05:33:13;92968.81;;;3.81;79.50